sensor_id;sensor_type;location;lat;lon;timestamp;temperature;humidity
25208;DHT22;13153;52.316;21.166;2023-02-28T00:00:33;-1.30;99.90
25208;DHT22;13153;52.316;21.166;2023-02-28T00:02:59;-1.40;99.90
25208;DHT22;13153;52.316;21.166;2023-02-28T00:05:27;-1.30;99.90
25208;DHT22;13153;52.316;21.166;2023-02-28T00:07:54;-1.40;99.90
25208;DHT22;13153;52.316;21.166;2023-02-28T00:10:23;-1.50;99.90
25208;DHT22;13153;52.316;21.166;2023-02-28T00:12:53;-1.40;99.90
25208;DHT22;13153;52.316;21.166;2023-02-28T00:15:23;-1.40;99.90
25208;DHT22;13153;52.316;21.166;2023-02-28T00:17:49;-1.50;99.90
25208;DHT22;13153;52.316;21.166;2023-02-28T00:20:16;-1.50;99.90
25208;DHT22;13153;52.316;21.166;2023-02-28T00:22:45;-1.50;99.90
25208;DHT22;13153;52.316;21.166;2023-02-28T00:25:15;-1.50;99.90
25208;DHT22;13153;52.316;21.166;2023-02-28T00:27:43;-1.60;99.90
25208;DHT22;13153;52.316;21.166;2023-02-28T00:30:13;-1.60;99.90
25208;DHT22;13153;52.316;21.166;2023-02-28T00:32:42;-1.60;99.90
25208;DHT22;13153;52.316;21.166;2023-02-28T00:35:08;-1.60;99.90
25208;DHT22;13153;52.316;21.166;2023-02-28T00:37:35;-1.60;99.90
25208;DHT22;13153;52.316;21.166;2023-02-28T00:40:01;-1.70;99.90
25208;DHT22;13153;52.316;21.166;2023-02-28T00:42:30;-1.80;99.90
25208;DHT22;13153;52.316;21.166;2023-02-28T00:44:55;-1.80;99.90
25208;DHT22;13153;52.316;21.166;2023-02-28T00:47:21;-1.80;99.90
25208;DHT22;13153;52.316;21.166;2023-02-28T00:49:47;-1.90;99.90
25208;DHT22;13153;52.316;21.166;2023-02-28T00:52:13;-1.80;99.90
25208;DHT22;13153;52.316;21.166;2023-02-28T00:54:39;-1.90;99.90
25208;DHT22;13153;52.316;21.166;2023-02-28T00:57:05;-1.90;99.90
25208;DHT22;13153;52.316;21.166;2023-02-28T00:59:31;-1.90;99.90
25208;DHT22;13153;52.316;21.166;2023-02-28T01:01:56;-1.90;99.90
25208;DHT22;13153;52.316;21.166;2023-02-28T01:04:22;-1.90;99.90
25208;DHT22;13153;52.316;21.166;2023-02-28T01:06:48;-1.90;99.90
25208;DHT22;13153;52.316;21.166;2023-02-28T01:09:14;-1.90;99.90
25208;DHT22;13153;52.316;21.166;2023-02-28T01:11:40;-2.00;99.90
25208;DHT22;13153;52.316;21.166;2023-02-28T01:14:08;-1.90;99.90
25208;DHT22;13153;52.316;21.166;2023-02-28T01:16:34;-2.00;99.90
25208;DHT22;13153;52.316;21.166;2023-02-28T01:18:59;-2.00;99.90
25208;DHT22;13153;52.316;21.166;2023-02-28T01:21:25;-2.00;99.90
25208;DHT22;13153;52.316;21.166;2023-02-28T01:23:51;-2.00;99.90
25208;DHT22;13153;52.316;21.166;2023-02-28T01:26:20;-2.00;99.90
25208;DHT22;13153;52.316;21.166;2023-02-28T01:28:48;-2.00;99.90
25208;DHT22;13153;52.316;21.166;2023-02-28T01:31:16;-2.00;99.90
25208;DHT22;13153;52.316;21.166;2023-02-28T01:33:43;-2.00;99.90
25208;DHT22;13153;52.316;21.166;2023-02-28T01:36:21;-2.00;99.90
25208;DHT22;13153;52.316;21.166;2023-02-28T01:38:48;-2.00;99.90
25208;DHT22;13153;52.316;21.166;2023-02-28T01:41:23;-2.20;99.90
25208;DHT22;13153;52.316;21.166;2023-02-28T01:46:25;-2.10;99.90
25208;DHT22;13153;52.316;21.166;2023-02-28T01:49:13;-2.10;99.90
25208;DHT22;13153;52.316;21.166;2023-02-28T01:51:43;-2.20;99.90
25208;DHT22;13153;52.316;21.166;2023-02-28T01:54:34;-2.20;99.90
25208;DHT22;13153;52.316;21.166;2023-02-28T01:57:09;-2.20;99.90
25208;DHT22;13153;52.316;21.166;2023-02-28T02:02:17;-2.20;99.90
25208;DHT22;13153;52.316;21.166;2023-02-28T02:05:16;-2.30;99.90
25208;DHT22;13153;52.316;21.166;2023-02-28T02:07:50;-2.20;99.90
25208;DHT22;13153;52.316;21.166;2023-02-28T02:10:46;-2.30;99.90
25208;DHT22;13153;52.316;21.166;2023-02-28T02:25:53;-2.40;99.90
25208;DHT22;13153;52.316;21.166;2023-02-28T02:43:01;-2.50;99.90
25208;DHT22;13153;52.316;21.166;2023-02-28T02:45:39;-2.40;99.90
25208;DHT22;13153;52.316;21.166;2023-02-28T02:48:13;-2.50;99.90
25208;DHT22;13153;52.316;21.166;2023-02-28T02:51:04;-2.50;99.90
25208;DHT22;13153;52.316;21.166;2023-02-28T02:53:42;-2.50;99.90
25208;DHT22;13153;52.316;21.166;2023-02-28T02:56:16;-2.40;99.90
25208;DHT22;13153;52.316;21.166;2023-02-28T02:58:48;-2.50;99.90
25208;DHT22;13153;52.316;21.166;2023-02-28T03:01:20;-2.50;99.90
25208;DHT22;13153;52.316;21.166;2023-02-28T03:04:04;-2.50;99.90
25208;DHT22;13153;52.316;21.166;2023-02-28T03:06:33;-2.50;99.90
25208;DHT22;13153;52.316;21.166;2023-02-28T03:09:00;-2.60;99.90
25208;DHT22;13153;52.316;21.166;2023-02-28T03:11:27;-2.60;99.90
25208;DHT22;13153;52.316;21.166;2023-02-28T03:23:17;-2.70;99.90
25208;DHT22;13153;52.316;21.166;2023-02-28T03:26:06;-2.60;99.90
25208;DHT22;13153;52.316;21.166;2023-02-28T03:29:02;-2.70;99.90
25208;DHT22;13153;52.316;21.166;2023-02-28T03:31:43;-2.80;99.90
25208;DHT22;13153;52.316;21.166;2023-02-28T03:34:24;-2.80;99.90
25208;DHT22;13153;52.316;21.166;2023-02-28T03:36:59;-2.70;99.90
25208;DHT22;13153;52.316;21.166;2023-02-28T03:39:40;-2.80;99.90
25208;DHT22;13153;52.316;21.166;2023-02-28T03:42:18;-2.80;99.90
25208;DHT22;13153;52.316;21.166;2023-02-28T03:45:08;-2.80;99.90
25208;DHT22;13153;52.316;21.166;2023-02-28T03:50:25;-2.90;99.90
25208;DHT22;13153;52.316;21.166;2023-02-28T03:53:19;-2.90;99.90
25208;DHT22;13153;52.316;21.166;2023-02-28T03:56:01;-2.90;99.90
25208;DHT22;13153;52.316;21.166;2023-02-28T03:58:35;-2.90;99.90
25208;DHT22;13153;52.316;21.166;2023-02-28T04:01:14;-2.90;99.90
25208;DHT22;13153;52.316;21.166;2023-02-28T04:03:44;-2.90;99.90
25208;DHT22;13153;52.316;21.166;2023-02-28T04:06:17;-3.00;99.90
25208;DHT22;13153;52.316;21.166;2023-02-28T04:08:45;-3.00;99.90
25208;DHT22;13153;52.316;21.166;2023-02-28T04:13:40;-3.00;99.90
25208;DHT22;13153;52.316;21.166;2023-02-28T04:16:09;-3.00;99.90
25208;DHT22;13153;52.316;21.166;2023-02-28T04:18:39;-3.00;99.90
25208;DHT22;13153;52.316;21.166;2023-02-28T04:21:06;-3.10;99.90
25208;DHT22;13153;52.316;21.166;2023-02-28T04:23:32;-3.10;99.90
25208;DHT22;13153;52.316;21.166;2023-02-28T04:25:58;-3.20;99.90
25208;DHT22;13153;52.316;21.166;2023-02-28T04:28:24;-3.10;99.90
25208;DHT22;13153;52.316;21.166;2023-02-28T04:30:55;-3.20;99.90
25208;DHT22;13153;52.316;21.166;2023-02-28T04:33:22;-3.20;99.90
25208;DHT22;13153;52.316;21.166;2023-02-28T04:35:48;-3.20;99.90
25208;DHT22;13153;52.316;21.166;2023-02-28T04:38:22;-3.20;99.90
25208;DHT22;13153;52.316;21.166;2023-02-28T04:40:48;-3.20;99.90
25208;DHT22;13153;52.316;21.166;2023-02-28T04:43:14;-3.20;99.90
25208;DHT22;13153;52.316;21.166;2023-02-28T04:45:40;-3.20;99.90
25208;DHT22;13153;52.316;21.166;2023-02-28T04:48:06;-3.30;99.90
25208;DHT22;13153;52.316;21.166;2023-02-28T04:50:31;-3.30;99.90
25208;DHT22;13153;52.316;21.166;2023-02-28T04:52:57;-3.30;99.90
25208;DHT22;13153;52.316;21.166;2023-02-28T04:55:23;-3.30;99.90
25208;DHT22;13153;52.316;21.166;2023-02-28T04:57:49;-3.30;99.90
25208;DHT22;13153;52.316;21.166;2023-02-28T05:00:14;-3.40;99.90
25208;DHT22;13153;52.316;21.166;2023-02-28T05:02:42;-3.30;99.90
25208;DHT22;13153;52.316;21.166;2023-02-28T05:05:08;-3.30;99.90
25208;DHT22;13153;52.316;21.166;2023-02-28T05:07:34;-3.30;99.90
25208;DHT22;13153;52.316;21.166;2023-02-28T05:10:00;-3.40;99.90
25208;DHT22;13153;52.316;21.166;2023-02-28T05:12:25;-3.30;99.90
25208;DHT22;13153;52.316;21.166;2023-02-28T05:14:51;-3.40;99.90
25208;DHT22;13153;52.316;21.166;2023-02-28T05:17:17;-3.30;99.90
25208;DHT22;13153;52.316;21.166;2023-02-28T05:19:43;-3.30;99.90
25208;DHT22;13153;52.316;21.166;2023-02-28T05:22:13;-3.30;99.90
25208;DHT22;13153;52.316;21.166;2023-02-28T05:24:42;-3.30;99.90
25208;DHT22;13153;52.316;21.166;2023-02-28T05:27:08;-3.30;99.90
25208;DHT22;13153;52.316;21.166;2023-02-28T05:29:35;-3.20;99.90
25208;DHT22;13153;52.316;21.166;2023-02-28T05:32:10;-3.20;99.90
25208;DHT22;13153;52.316;21.166;2023-02-28T05:34:40;-3.30;99.90
25208;DHT22;13153;52.316;21.166;2023-02-28T05:37:11;-3.20;99.90
25208;DHT22;13153;52.316;21.166;2023-02-28T05:39:38;-3.10;99.90
25208;DHT22;13153;52.316;21.166;2023-02-28T05:42:04;-3.10;99.90
25208;DHT22;13153;52.316;21.166;2023-02-28T05:44:30;-2.90;99.90
25208;DHT22;13153;52.316;21.166;2023-02-28T05:46:56;-2.80;99.90
25208;DHT22;13153;52.316;21.166;2023-02-28T05:49:22;-2.60;99.90
25208;DHT22;13153;52.316;21.166;2023-02-28T05:51:48;-2.50;99.90
25208;DHT22;13153;52.316;21.166;2023-02-28T05:54:14;-2.30;99.90
25208;DHT22;13153;52.316;21.166;2023-02-28T05:56:39;-2.00;99.90
25208;DHT22;13153;52.316;21.166;2023-02-28T05:59:06;-1.80;99.90
25208;DHT22;13153;52.316;21.166;2023-02-28T06:01:37;-1.60;99.90
25208;DHT22;13153;52.316;21.166;2023-02-28T06:04:08;-1.30;99.90
25208;DHT22;13153;52.316;21.166;2023-02-28T06:06:35;-1.10;99.90
25208;DHT22;13153;52.316;21.166;2023-02-28T06:09:03;-0.80;99.90
25208;DHT22;13153;52.316;21.166;2023-02-28T06:11:31;-0.70;99.90
25208;DHT22;13153;52.316;21.166;2023-02-28T06:13:58;-0.40;99.90
25208;DHT22;13153;52.316;21.166;2023-02-28T06:16:27;-0.30;99.90
25208;DHT22;13153;52.316;21.166;2023-02-28T06:18:56;0.00;99.90
25208;DHT22;13153;52.316;21.166;2023-02-28T06:21:23;0.20;99.90
25208;DHT22;13153;52.316;21.166;2023-02-28T06:23:49;0.40;99.90
25208;DHT22;13153;52.316;21.166;2023-02-28T06:26:15;0.50;99.90
25208;DHT22;13153;52.316;21.166;2023-02-28T06:28:41;0.70;99.90
25208;DHT22;13153;52.316;21.166;2023-02-28T06:31:10;1.00;99.90
25208;DHT22;13153;52.316;21.166;2023-02-28T06:33:38;1.20;99.90
25208;DHT22;13153;52.316;21.166;2023-02-28T06:36:05;1.30;99.90
25208;DHT22;13153;52.316;21.166;2023-02-28T06:38:32;1.50;99.90
25208;DHT22;13153;52.316;21.166;2023-02-28T06:41:00;1.70;99.90
25208;DHT22;13153;52.316;21.166;2023-02-28T06:43:33;1.90;99.90
25208;DHT22;13153;52.316;21.166;2023-02-28T06:46:02;2.10;99.90
25208;DHT22;13153;52.316;21.166;2023-02-28T06:48:29;2.20;99.90
25208;DHT22;13153;52.316;21.166;2023-02-28T06:51:12;2.50;99.90
25208;DHT22;13153;52.316;21.166;2023-02-28T06:53:40;2.60;99.90
25208;DHT22;13153;52.316;21.166;2023-02-28T06:56:09;2.50;99.90
25208;DHT22;13153;52.316;21.166;2023-02-28T06:58:37;2.60;99.90
25208;DHT22;13153;52.316;21.166;2023-02-28T07:01:03;2.60;99.90
25208;DHT22;13153;52.316;21.166;2023-02-28T07:03:30;2.80;99.90
25208;DHT22;13153;52.316;21.166;2023-02-28T07:05:57;3.10;99.90
25208;DHT22;13153;52.316;21.166;2023-02-28T07:08:24;3.30;99.90
25208;DHT22;13153;52.316;21.166;2023-02-28T07:10:54;3.30;99.90
25208;DHT22;13153;52.316;21.166;2023-02-28T07:13:21;3.40;99.90
25208;DHT22;13153;52.316;21.166;2023-02-28T07:15:59;3.60;99.90
25208;DHT22;13153;52.316;21.166;2023-02-28T07:18:26;3.70;99.90
25208;DHT22;13153;52.316;21.166;2023-02-28T07:20:53;3.70;99.90
25208;DHT22;13153;52.316;21.166;2023-02-28T07:23:19;3.80;99.90
25208;DHT22;13153;52.316;21.166;2023-02-28T07:25:46;4.00;99.90
25208;DHT22;13153;52.316;21.166;2023-02-28T07:28:12;4.30;99.90
25208;DHT22;13153;52.316;21.166;2023-02-28T07:30:39;4.50;99.90
25208;DHT22;13153;52.316;21.166;2023-02-28T07:33:05;4.80;99.90
25208;DHT22;13153;52.316;21.166;2023-02-28T07:35:31;4.90;99.90
25208;DHT22;13153;52.316;21.166;2023-02-28T07:37:58;5.10;99.90
25208;DHT22;13153;52.316;21.166;2023-02-28T07:40:25;5.20;99.90
25208;DHT22;13153;52.316;21.166;2023-02-28T07:42:51;5.40;99.90
25208;DHT22;13153;52.316;21.166;2023-02-28T07:45:17;5.60;99.90
25208;DHT22;13153;52.316;21.166;2023-02-28T07:47:43;5.70;99.90
25208;DHT22;13153;52.316;21.166;2023-02-28T07:50:11;5.90;99.70
25208;DHT22;13153;52.316;21.166;2023-02-28T07:52:43;5.90;98.60
25208;DHT22;13153;52.316;21.166;2023-02-28T07:55:10;5.90;96.80
25208;DHT22;13153;52.316;21.166;2023-02-28T07:57:36;5.70;97.20
25208;DHT22;13153;52.316;21.166;2023-02-28T08:00:07;5.70;98.00
25208;DHT22;13153;52.316;21.166;2023-02-28T08:02:36;5.70;97.90
25208;DHT22;13153;52.316;21.166;2023-02-28T08:05:02;5.70;97.40
25208;DHT22;13153;52.316;21.166;2023-02-28T08:07:28;5.60;97.60
25208;DHT22;13153;52.316;21.166;2023-02-28T08:09:53;5.50;96.20
25208;DHT22;13153;52.316;21.166;2023-02-28T08:12:19;5.30;96.90
25208;DHT22;13153;52.316;21.166;2023-02-28T08:14:45;5.30;97.20
25208;DHT22;13153;52.316;21.166;2023-02-28T08:17:11;5.30;96.90
25208;DHT22;13153;52.316;21.166;2023-02-28T08:19:37;5.30;96.80
25208;DHT22;13153;52.316;21.166;2023-02-28T08:22:05;5.30;96.60
25208;DHT22;13153;52.316;21.166;2023-02-28T08:24:31;5.40;97.40
25208;DHT22;13153;52.316;21.166;2023-02-28T08:26:57;5.60;96.20
25208;DHT22;13153;52.316;21.166;2023-02-28T08:29:23;5.80;95.30
25208;DHT22;13153;52.316;21.166;2023-02-28T08:31:49;6.10;93.80
25208;DHT22;13153;52.316;21.166;2023-02-28T08:34:16;6.10;93.40
25208;DHT22;13153;52.316;21.166;2023-02-28T08:36:42;6.30;92.70
25208;DHT22;13153;52.316;21.166;2023-02-28T08:39:10;6.40;92.80
25208;DHT22;13153;52.316;21.166;2023-02-28T08:41:37;6.60;91.80
25208;DHT22;13153;52.316;21.166;2023-02-28T08:44:03;6.60;91.00
25208;DHT22;13153;52.316;21.166;2023-02-28T08:46:29;6.50;90.90
25208;DHT22;13153;52.316;21.166;2023-02-28T08:48:56;6.50;91.40
25208;DHT22;13153;52.316;21.166;2023-02-28T08:51:25;6.60;90.80
25208;DHT22;13153;52.316;21.166;2023-02-28T08:53:57;6.70;90.80
25208;DHT22;13153;52.316;21.166;2023-02-28T08:56:25;6.70;91.00
25208;DHT22;13153;52.316;21.166;2023-02-28T08:58:54;6.50;88.20
25208;DHT22;13153;52.316;21.166;2023-02-28T09:01:26;6.10;88.50
25208;DHT22;13153;52.316;21.166;2023-02-28T09:03:55;5.80;90.30
25208;DHT22;13153;52.316;21.166;2023-02-28T09:06:24;5.50;90.70
25208;DHT22;13153;52.316;21.166;2023-02-28T09:08:52;5.20;91.70
25208;DHT22;13153;52.316;21.166;2023-02-28T09:11:18;5.30;92.00
25208;DHT22;13153;52.316;21.166;2023-02-28T09:13:45;5.20;91.70
25208;DHT22;13153;52.316;21.166;2023-02-28T09:16:14;5.20;92.60
25208;DHT22;13153;52.316;21.166;2023-02-28T09:18:42;5.20;92.50
25208;DHT22;13153;52.316;21.166;2023-02-28T09:21:15;5.10;92.40
25208;DHT22;13153;52.316;21.166;2023-02-28T09:23:43;5.10;92.50
25208;DHT22;13153;52.316;21.166;2023-02-28T09:26:18;5.10;94.10
25208;DHT22;13153;52.316;21.166;2023-02-28T09:28:49;5.40;93.40
25208;DHT22;13153;52.316;21.166;2023-02-28T09:31:23;5.60;92.90
25208;DHT22;13153;52.316;21.166;2023-02-28T09:33:54;5.60;91.90
25208;DHT22;13153;52.316;21.166;2023-02-28T09:36:22;5.60;92.80
25208;DHT22;13153;52.316;21.166;2023-02-28T09:38:49;5.60;93.00
25208;DHT22;13153;52.316;21.166;2023-02-28T09:41:21;5.40;91.40
25208;DHT22;13153;52.316;21.166;2023-02-28T09:44:00;5.10;91.90
25208;DHT22;13153;52.316;21.166;2023-02-28T09:46:43;5.00;93.30
25208;DHT22;13153;52.316;21.166;2023-02-28T09:49:18;5.00;93.40
25208;DHT22;13153;52.316;21.166;2023-02-28T09:52:30;5.00;93.90
25208;DHT22;13153;52.316;21.166;2023-02-28T09:55:01;5.20;93.80
25208;DHT22;13153;52.316;21.166;2023-02-28T09:57:43;5.40;93.60
25208;DHT22;13153;52.316;21.166;2023-02-28T10:00:16;5.50;92.60
25208;DHT22;13153;52.316;21.166;2023-02-28T10:06:18;5.80;93.30
25208;DHT22;13153;52.316;21.166;2023-02-28T10:09:08;5.80;91.80
25208;DHT22;13153;52.316;21.166;2023-02-28T10:11:40;5.80;93.50
25208;DHT22;13153;52.316;21.166;2023-02-28T10:14:22;5.90;92.30
25208;DHT22;13153;52.316;21.166;2023-02-28T10:16:53;5.90;91.80
25208;DHT22;13153;52.316;21.166;2023-02-28T10:19:39;5.80;91.20
25208;DHT22;13153;52.316;21.166;2023-02-28T10:24:43;5.50;91.40
25208;DHT22;13153;52.316;21.166;2023-02-28T10:29:49;5.10;91.40
25208;DHT22;13153;52.316;21.166;2023-02-28T10:32:34;4.90;92.10
25208;DHT22;13153;52.316;21.166;2023-02-28T10:35:15;4.80;92.60
25208;DHT22;13153;52.316;21.166;2023-02-28T10:37:51;4.70;92.90
25208;DHT22;13153;52.316;21.166;2023-02-28T10:45:53;4.60;93.50
25208;DHT22;13153;52.316;21.166;2023-02-28T10:48:26;4.70;93.40
25208;DHT22;13153;52.316;21.166;2023-02-28T10:50:55;4.80;93.50
25208;DHT22;13153;52.316;21.166;2023-02-28T10:53:33;4.80;93.30
25208;DHT22;13153;52.316;21.166;2023-02-28T10:56:22;4.70;92.90
25208;DHT22;13153;52.316;21.166;2023-02-28T11:01:52;4.80;93.40
25208;DHT22;13153;52.316;21.166;2023-02-28T11:07:04;4.90;93.50
25208;DHT22;13153;52.316;21.166;2023-02-28T11:09:35;5.00;93.20
25208;DHT22;13153;52.316;21.166;2023-02-28T11:12:07;5.10;94.10
25208;DHT22;13153;52.316;21.166;2023-02-28T11:15:26;5.20;93.60
25208;DHT22;13153;52.316;21.166;2023-02-28T11:17:55;5.20;92.40
25208;DHT22;13153;52.316;21.166;2023-02-28T11:20:40;5.30;92.40
25208;DHT22;13153;52.316;21.166;2023-02-28T11:23:12;5.20;93.00
25208;DHT22;13153;52.316;21.166;2023-02-28T11:25:39;5.20;94.00
25208;DHT22;13153;52.316;21.166;2023-02-28T11:28:36;5.30;95.00
25208;DHT22;13153;52.316;21.166;2023-02-28T11:31:16;5.40;94.20
25208;DHT22;13153;52.316;21.166;2023-02-28T11:36:22;5.50;93.20
25208;DHT22;13153;52.316;21.166;2023-02-28T11:39:08;5.50;93.50
25208;DHT22;13153;52.316;21.166;2023-02-28T11:52:52;5.30;93.20
25208;DHT22;13153;52.316;21.166;2023-02-28T11:55:24;5.20;92.10
25208;DHT22;13153;52.316;21.166;2023-02-28T11:58:48;5.10;92.40
25208;DHT22;13153;52.316;21.166;2023-02-28T12:04:33;4.90;92.80
25208;DHT22;13153;52.316;21.166;2023-02-28T12:07:22;4.90;93.50
25208;DHT22;13153;52.316;21.166;2023-02-28T12:18:51;4.90;93.30
25208;DHT22;13153;52.316;21.166;2023-02-28T12:21:48;4.90;93.90
25208;DHT22;13153;52.316;21.166;2023-02-28T12:24:59;4.90;92.00
25208;DHT22;13153;52.316;21.166;2023-02-28T12:27:48;4.80;92.10
25208;DHT22;13153;52.316;21.166;2023-02-28T12:30:25;4.80;92.20
25208;DHT22;13153;52.316;21.166;2023-02-28T12:33:06;4.70;93.20
25208;DHT22;13153;52.316;21.166;2023-02-28T12:35:59;4.80;93.70
25208;DHT22;13153;52.316;21.166;2023-02-28T12:38:28;4.70;93.80
25208;DHT22;13153;52.316;21.166;2023-02-28T12:41:15;4.70;93.00
25208;DHT22;13153;52.316;21.166;2023-02-28T12:43:50;4.70;93.50
25208;DHT22;13153;52.316;21.166;2023-02-28T12:46:29;4.60;93.00
25208;DHT22;13153;52.316;21.166;2023-02-28T12:49:04;4.60;92.20
25208;DHT22;13153;52.316;21.166;2023-02-28T12:51:38;4.60;93.20
25208;DHT22;13153;52.316;21.166;2023-02-28T12:54:16;4.60;93.60
25208;DHT22;13153;52.316;21.166;2023-02-28T12:57:08;4.60;93.90
25208;DHT22;13153;52.316;21.166;2023-02-28T12:59:59;4.60;94.20
25208;DHT22;13153;52.316;21.166;2023-02-28T13:11:00;4.60;91.60
25208;DHT22;13153;52.316;21.166;2023-02-28T13:13:28;4.50;92.00
25208;DHT22;13153;52.316;21.166;2023-02-28T13:16:02;4.40;92.80
25208;DHT22;13153;52.316;21.166;2023-02-28T13:18:31;4.40;93.10
25208;DHT22;13153;52.316;21.166;2023-02-28T13:21:28;4.50;92.50
25208;DHT22;13153;52.316;21.166;2023-02-28T13:34:35;4.40;94.10
25208;DHT22;13153;52.316;21.166;2023-02-28T14:02:03;4.50;91.90
25208;DHT22;13153;52.316;21.166;2023-02-28T14:07:48;4.50;92.20
25208;DHT22;13153;52.316;21.166;2023-02-28T14:10:30;4.50;91.50
25208;DHT22;13153;52.316;21.166;2023-02-28T14:13:01;4.50;91.70
25208;DHT22;13153;52.316;21.166;2023-02-28T14:16:03;4.40;91.80
25208;DHT22;13153;52.316;21.166;2023-02-28T14:18:37;4.40;92.90
25208;DHT22;13153;52.316;21.166;2023-02-28T14:21:22;4.50;92.80
25208;DHT22;13153;52.316;21.166;2023-02-28T14:24:24;4.40;92.50
25208;DHT22;13153;52.316;21.166;2023-02-28T14:26:56;4.40;91.90
25208;DHT22;13153;52.316;21.166;2023-02-28T14:32:27;4.30;92.20
25208;DHT22;13153;52.316;21.166;2023-02-28T14:35:35;4.30;92.60
25208;DHT22;13153;52.316;21.166;2023-02-28T14:38:40;4.30;92.20
25208;DHT22;13153;52.316;21.166;2023-02-28T14:41:30;4.30;91.90
25208;DHT22;13153;52.316;21.166;2023-02-28T14:43:59;4.30;92.20
25208;DHT22;13153;52.316;21.166;2023-02-28T14:46:35;4.30;92.50
25208;DHT22;13153;52.316;21.166;2023-02-28T14:49:12;4.30;91.80
25208;DHT22;13153;52.316;21.166;2023-02-28T14:51:49;4.30;92.00
25208;DHT22;13153;52.316;21.166;2023-02-28T14:54:26;4.40;92.40
25208;DHT22;13153;52.316;21.166;2023-02-28T14:56:52;4.40;92.10
25208;DHT22;13153;52.316;21.166;2023-02-28T14:59:27;4.40;91.90
25208;DHT22;13153;52.316;21.166;2023-02-28T15:02:21;4.30;92.10
25208;DHT22;13153;52.316;21.166;2023-02-28T15:04:55;4.40;91.90
25208;DHT22;13153;52.316;21.166;2023-02-28T15:07:23;4.30;92.30
25208;DHT22;13153;52.316;21.166;2023-02-28T15:16:09;4.40;92.30
25208;DHT22;13153;52.316;21.166;2023-02-28T15:21:47;4.40;92.20
25208;DHT22;13153;52.316;21.166;2023-02-28T15:24:38;4.40;92.50
25208;DHT22;13153;52.316;21.166;2023-02-28T15:27:27;4.40;91.90
25208;DHT22;13153;52.316;21.166;2023-02-28T15:29:59;4.40;91.90
25208;DHT22;13153;52.316;21.166;2023-02-28T15:32:39;4.40;91.40
25208;DHT22;13153;52.316;21.166;2023-02-28T15:35:25;4.30;91.70
25208;DHT22;13153;52.316;21.166;2023-02-28T15:41:04;4.20;92.40
25208;DHT22;13153;52.316;21.166;2023-02-28T15:43:35;4.20;92.80
25208;DHT22;13153;52.316;21.166;2023-02-28T15:46:11;4.20;92.20
25208;DHT22;13153;52.316;21.166;2023-02-28T15:48:51;4.20;92.70
25208;DHT22;13153;52.316;21.166;2023-02-28T15:51:21;4.10;92.50
25208;DHT22;13153;52.316;21.166;2023-02-28T15:53:59;4.20;92.80
25208;DHT22;13153;52.316;21.166;2023-02-28T15:56:32;4.10;93.30
25208;DHT22;13153;52.316;21.166;2023-02-28T15:59:05;4.10;93.40
25208;DHT22;13153;52.316;21.166;2023-02-28T16:01:37;4.10;93.30
25208;DHT22;13153;52.316;21.166;2023-02-28T16:04:21;4.10;93.40
25208;DHT22;13153;52.316;21.166;2023-02-28T16:09:24;3.90;93.50
25208;DHT22;13153;52.316;21.166;2023-02-28T16:11:53;3.80;93.60
25208;DHT22;13153;52.316;21.166;2023-02-28T16:14:24;3.80;93.70
25208;DHT22;13153;52.316;21.166;2023-02-28T16:17:08;3.70;93.80
25208;DHT22;13153;52.316;21.166;2023-02-28T16:19:45;3.70;94.30
25208;DHT22;13153;52.316;21.166;2023-02-28T16:22:10;3.60;94.50
25208;DHT22;13153;52.316;21.166;2023-02-28T16:24:36;3.60;94.60
25208;DHT22;13153;52.316;21.166;2023-02-28T16:27:04;3.60;94.60
25208;DHT22;13153;52.316;21.166;2023-02-28T16:29:33;3.50;94.40
25208;DHT22;13153;52.316;21.166;2023-02-28T16:32:04;3.40;94.60
25208;DHT22;13153;52.316;21.166;2023-02-28T16:34:31;3.40;95.00
25208;DHT22;13153;52.316;21.166;2023-02-28T16:36:57;3.30;95.10
25208;DHT22;13153;52.316;21.166;2023-02-28T16:39:24;3.30;95.00
25208;DHT22;13153;52.316;21.166;2023-02-28T16:41:50;3.30;95.20
25208;DHT22;13153;52.316;21.166;2023-02-28T16:44:27;3.20;95.50
25208;DHT22;13153;52.316;21.166;2023-02-28T16:47:03;3.20;95.80
25208;DHT22;13153;52.316;21.166;2023-02-28T16:49:30;3.10;96.40
25208;DHT22;13153;52.316;21.166;2023-02-28T16:51:56;3.10;97.00
25208;DHT22;13153;52.316;21.166;2023-02-28T16:54:22;3.00;97.60
25208;DHT22;13153;52.316;21.166;2023-02-28T16:56:48;2.90;98.50
25208;DHT22;13153;52.316;21.166;2023-02-28T16:59:19;2.80;99.60
25208;DHT22;13153;52.316;21.166;2023-02-28T17:01:48;2.70;99.90
25208;DHT22;13153;52.316;21.166;2023-02-28T17:04:15;2.60;99.90
25208;DHT22;13153;52.316;21.166;2023-02-28T17:06:41;2.50;99.90
25208;DHT22;13153;52.316;21.166;2023-02-28T17:09:17;2.40;99.90
25208;DHT22;13153;52.316;21.166;2023-02-28T17:11:48;2.40;99.90
25208;DHT22;13153;52.316;21.166;2023-02-28T17:14:14;2.30;99.90
25208;DHT22;13153;52.316;21.166;2023-02-28T17:16:41;2.30;99.90
25208;DHT22;13153;52.316;21.166;2023-02-28T17:19:13;2.20;99.90
25208;DHT22;13153;52.316;21.166;2023-02-28T17:21:41;2.20;99.90
25208;DHT22;13153;52.316;21.166;2023-02-28T17:24:08;2.10;99.90
25208;DHT22;13153;52.316;21.166;2023-02-28T17:26:41;2.10;99.90
25208;DHT22;13153;52.316;21.166;2023-02-28T17:29:25;2.10;99.90
25208;DHT22;13153;52.316;21.166;2023-02-28T17:31:52;2.00;99.90
25208;DHT22;13153;52.316;21.166;2023-02-28T17:34:18;2.10;99.90
25208;DHT22;13153;52.316;21.166;2023-02-28T17:36:46;1.90;99.90
25208;DHT22;13153;52.316;21.166;2023-02-28T17:39:15;1.90;99.90
25208;DHT22;13153;52.316;21.166;2023-02-28T17:41:52;1.90;99.90
25208;DHT22;13153;52.316;21.166;2023-02-28T17:44:20;1.90;99.90
25208;DHT22;13153;52.316;21.166;2023-02-28T17:46:48;1.80;99.90
25208;DHT22;13153;52.316;21.166;2023-02-28T17:49:15;1.70;99.90
25208;DHT22;13153;52.316;21.166;2023-02-28T17:51:44;1.60;99.90
25208;DHT22;13153;52.316;21.166;2023-02-28T17:54:10;1.60;99.90
25208;DHT22;13153;52.316;21.166;2023-02-28T17:56:36;1.60;99.90
25208;DHT22;13153;52.316;21.166;2023-02-28T17:59:02;1.60;99.90
25208;DHT22;13153;52.316;21.166;2023-02-28T18:01:28;1.50;99.90
25208;DHT22;13153;52.316;21.166;2023-02-28T18:03:55;1.50;99.90
25208;DHT22;13153;52.316;21.166;2023-02-28T18:09:19;1.40;99.90
25208;DHT22;13153;52.316;21.166;2023-02-28T18:11:53;1.40;99.90
25208;DHT22;13153;52.316;21.166;2023-02-28T18:14:23;1.30;99.90
25208;DHT22;13153;52.316;21.166;2023-02-28T18:16:52;1.30;99.90
25208;DHT22;13153;52.316;21.166;2023-02-28T18:19:20;1.30;99.90
25208;DHT22;13153;52.316;21.166;2023-02-28T18:21:48;1.30;99.90
25208;DHT22;13153;52.316;21.166;2023-02-28T18:24:16;1.20;99.90
25208;DHT22;13153;52.316;21.166;2023-02-28T18:26:44;1.20;99.90
25208;DHT22;13153;52.316;21.166;2023-02-28T18:29:22;1.20;99.90
25208;DHT22;13153;52.316;21.166;2023-02-28T18:31:50;1.20;99.90
25208;DHT22;13153;52.316;21.166;2023-02-28T18:34:17;1.10;99.90
25208;DHT22;13153;52.316;21.166;2023-02-28T18:36:43;1.10;99.90